Terminal Aerodrome Forecast
Issued by NWS Rapid City, SD

Home | Current Version | Previous Version | Text Only | Print | Product List | Glossary Off
Versions: 1 2 3 4 5 6 7 8 9 10 11 12 13 14 15 16 17 18 19 20 21 22 23

000
FTUS43 KUNR 261000 AAA
TAFRAP
TAF AMD
KRAP 261028Z 2610/2706 11005KT P6SM BKN110
     FM261100 10005KT P6SM VCTS BKN080CB
      TEMPO 2611/2614 -SHRA SCT030
     FM261400 15012KT P6SM BKN040=

USA.gov is the U.S. government's official web portal to all federal, state and local government web resources and services.